Guiding, China
Current Conditions -  °F | °C
As of 7:00 PM on Thursday 27 Nov 2014 (Local Time) from ZUGY Reporting Station
Clear Clear  
Wind Chill: 63°   Ceiling: Unl
Heat Index: 63°   Visibility: 6mi
Dew Point: 50°   Wind: 4mph
Humidity: 63%   Direction: 160°SSE
Pressure: 29.91"   Gusts: NA
Location:  26.57°N, 107.23°E
Report Text: ZUGY 271100Z 16002MPS CAVOK 17/10 Q1013 NOSIG
Loading
Personal Weather Stations






























Interactive Weather Map New forecast layout! Learn more

10-Day Weather Forecast

Advertisements
Track Severe Weather on mobile